METAR LDZA 170830Z VRB01KT CAVOK 25/15 Q1016 NOSIG =
METAR LDZA 170800Z VRB01KT CAVOK 24/15 Q1016 NOSIG =
METAR LDZA 170730Z VRB01KT CAVOK 23/16 Q1016 NOSIG =
METAR LDZA 170700Z VRB02KT CAVOK 22/16 Q1016 NOSIG =
METAR LDZA 170630Z 00000KT CAVOK 20/16 Q1016 NOSIG =
METAR LDZA 170600Z 00000KT CAVOK 18/16 Q1016 NOSIG =
METAR LDZA 170530Z 00000KT CAVOK 17/15 Q1015 NOSIG =
METAR LDZA 170500Z 00000KT CAVOK 16/14 Q1015 NOSIG =
METAR LDZA 170430Z 22002KT CAVOK 15/14 Q1015 NOSIG =
METAR LDZA 170400Z 24002KT CAVOK 15/14 Q1015 NOSIG =
METAR LDZA 170330Z 23002KT CAVOK 15/14 Q1015 NOSIG =
METAR LDZA 170300Z 23003KT CAVOK 15/14 Q1015 NOSIG =
METAR LDZA 170230Z 24002KT CAVOK 15/14 Q1015 NOSIG =
METAR LDZA 170200Z 24002KT CAVOK 16/14 Q1015 NOSIG =
METAR LDZA 170130Z 24003KT CAVOK 16/14 Q1015 NOSIG =
METAR LDZA 170100Z 23003KT CAVOK 16/14 Q1015 NOSIG =
METAR LDZA 170030Z 25002KT CAVOK 16/14 Q1015 NOSIG =
METAR LDZA 170000Z 24003KT CAVOK 17/15 Q1016 NOSIG =
METAR LDZA 162330Z 25002KT CAVOK 17/15 Q1016 NOSIG =
METAR LDZA 162300Z 25002KT CAVOK 17/15 Q1016 NOSIG =
METAR LDZA 162230Z 25002KT CAVOK 18/15 Q1016 NOSIG =
METAR LDZA 162200Z 26003KT CAVOK 18/15 Q1016 NOSIG =
METAR LDZA 162130Z 00000KT CAVOK 19/15 Q1016 NOSIG =
METAR LDZA 162100Z 01002KT CAVOK 20/15 Q1016 NOSIG =
METAR LDZA 162030Z VRB01KT CAVOK 20/15 Q1016 NOSIG =
METAR LDZA 162000Z 03004KT CAVOK 21/15 Q1016 NOSIG =
METAR LDZA 161930Z 03004KT CAVOK 22/15 Q1016 NOSIG =
METAR LDZA 161900Z 02004KT CAVOK 23/15 Q1015 NOSIG =
METAR LDZA 161830Z 04004KT 360V070 CAVOK 24/15 Q1015 NOSIG =
METAR LDZA 161800Z 05004KT 010V120 CAVOK 25/15 Q1015 NOSIG =
METAR LDZA 161730Z 03006KT 010V080 CAVOK 26/15 Q1015 NOSIG =
METAR LDZA 161700Z 04007KT 340V070 CAVOK 27/15 Q1015 NOSIG =
METAR LDZA 161630Z 05007KT 360V100 CAVOK 27/14 Q1015 NOSIG =
METAR LDZA 161600Z 03008KT 350V080 CAVOK 27/15 Q1015 NOSIG =
METAR LDZA 161530Z 05005KT 350V110 CAVOK 27/15 Q1015 NOSIG =
METAR LDZA 161500Z 08006KT 020V130 CAVOK 27/15 Q1015 NOSIG =
METAR LDZA 161430Z 06006KT 350V140 CAVOK 28/15 Q1016 NOSIG =
METAR LDZA 161400Z 07008KT 010V110 CAVOK 27/14 Q1016 NOSIG =
METAR LDZA 161330Z 06007KT 320V130 9999 FEW047 28/15 Q1016 NOSIG =
METAR LDZA 161300Z 06008KT 010V140 9999 FEW047 28/16 Q1016 NOSIG =
METAR LDZA 161230Z 06009KT 360V120 9999 FEW047 28/16 Q1016 NOSIG =
METAR LDZA 161200Z 04010KT 340V120 9999 FEW047 27/15 Q1017 NOSIG =
METAR LDZA 161130Z 05008KT 340V120 9999 FEW045 28/16 Q1017 NOSIG =
METAR LDZA 161100Z 07008KT 340V130 9999 FEW042 27/16 Q1017 NOSIG =
METAR LDZA 161030Z 07008KT 020V150 9999 SCT038 27/17 Q1017 NOSIG =
METAR LDZA 161000Z 07007KT 360V140 9999 SCT037 25/17 Q1017 NOSIG =
METAR LDZA 160930Z 05009KT 350V100 9999 FEW045 26/17 Q1018 NOSIG =
METAR LDZA 160900Z 04007KT 330V110 CAVOK 26/16 Q1018 NOSIG =
METAR LDZA 160830Z 06009KT 360V120 CAVOK 25/16 Q1018 NOSIG =
METAR LDZA 160800Z 02007KT 310V080 CAVOK 24/15 Q1018 NOSIG =
METAR LDZA 160730Z 35004KT 290V050 CAVOK 23/16 Q1018 TEMPO 05008KT =
METAR LDZA 160700Z VRB02KT CAVOK 21/16 Q1018 TEMPO 05008KT =
METAR LDZA 160630Z VRB01KT CAVOK 20/16 Q1018 TEMPO 05008KT =
METAR LDZA 160600Z VRB02KT CAVOK 19/16 Q1018 TEMPO 05008KT =
METAR LDZA 160530Z 20004KT 160V240 CAVOK 17/15 Q1018 TEMPO 05008KT =
METAR LDZA 160500Z 20003KT 140V250 CAVOK 16/15 Q1018 TEMPO 05008KT =
METAR LDZA 160430Z 23003KT CAVOK 16/14 Q1017 NOSIG =
METAR LDZA 160400Z 25005KT CAVOK 15/14 Q1017 NOSIG =
METAR LDZA 160330Z 21003KT 180V250 CAVOK 15/14 Q1017 NOSIG =
METAR LDZA 160300Z 21004KT CAVOK 15/14 Q1017 NOSIG =
METAR LDZA 160230Z 23003KT CAVOK 15/14 Q1017 NOSIG =
METAR LDZA 160200Z 24003KT CAVOK 15/13 Q1017 NOSIG =
METAR LDZA 160130Z 22003KT CAVOK 15/14 Q1017 NOSIG =
METAR LDZA 160100Z 23004KT CAVOK 16/14 Q1017 NOSIG =
METAR LDZA 160030Z 24004KT CAVOK 16/14 Q1017 NOSIG =
METAR LDZA 160000Z 23003KT CAVOK 16/14 Q1017 NOSIG =
METAR LDZA 152330Z 25004KT CAVOK 17/14 Q1018 NOSIG =
METAR LDZA 152300Z 25004KT CAVOK 17/14 Q1018 NOSIG =
METAR LDZA 152230Z 25004KT CAVOK 17/14 Q1018 NOSIG =
METAR LDZA 152200Z 26003KT CAVOK 17/14 Q1018 NOSIG =
METAR LDZA 152130Z 25003KT CAVOK 18/14 Q1018 NOSIG =
METAR LDZA 152100Z 00000KT CAVOK 19/14 Q1018 NOSIG =